Time;durP1;ratioP1;P1;durP2;ratioP2;P2;SDS_P1;SDS_P2;PMS_P1;PMS_P2;Temp;Humidity;BMP_temperature;BMP_pressure;BME280_temperature;BME280_humidity;BME280_pressure;Samples;Min_cycle;Max_cycle;Signal;HPM_P1;HPM_P2
2021/12/17 00:00:19;;;;;;;0.30;0.30;;;7.10;66.40;;;;;;6209901;28;20304;-63
2021/12/17 00:03:32;;;;;;;0.70;0.70;;;7.10;66.40;;;;;;6183844;28;20190;-63
2021/12/17 00:06:47;;;;;;;0.37;0.37;;;7.00;66.50;;;;;;6169290;28;20196;-63
2021/12/17 00:09:50;;;;;;;0.30;0.30;;;6.90;67.30;;;;;;6177386;28;20265;-63
2021/12/17 00:12:52;;;;;;;0.40;0.40;;;6.80;67.30;;;;;;6216110;28;20188;-64
2021/12/17 00:15:52;;;;;;;0.50;0.50;;;6.80;67.20;;;;;;6209822;28;20194;-64
2021/12/17 00:19:17;;;;;;;0.53;0.37;;;6.90;67.20;;;;;;6223951;28;20193;-63
2021/12/17 00:48:53;;;;;;;0.50;0.40;;;7.00;65.70;;;;;;6247920;28;20207;-63
2021/12/17 00:51:57;;;;;;;0.40;0.30;;;7.00;65.90;;;;;;6220235;28;20260;-63
2021/12/17 00:54:58;;;;;;;0.47;0.30;;;7.00;65.40;;;;;;6228698;28;20196;-64
2021/12/17 00:57:58;;;;;;;0.27;0.27;;;6.90;65.70;;;;;;6188054;28;20250;-63
2021/12/17 01:00:59;;;;;;;0.30;0.30;;;6.90;66.40;;;;;;6195370;28;20187;-63
2021/12/17 01:04:01;;;;;;;0.30;0.30;;;6.80;66.50;;;;;;6213257;28;20536;-64
2021/12/17 01:07:04;;;;;;;1.10;0.40;;;6.80;65.60;;;;;;6243057;28;20198;-63
2021/12/17 01:10:12;;;;;;;0.40;0.40;;;6.90;66.00;;;;;;6241726;28;20236;-63
2021/12/17 01:13:25;;;;;;;0.40;0.40;;;6.90;66.20;;;;;;6234725;28;20183;-63
2021/12/17 01:16:56;;;;;;;0.33;0.33;;;6.70;67.70;;;;;;6213136;28;20249;-63
2021/12/17 01:44:06;;;;;;;0.43;0.40;;;6.30;68.10;;;;;;6211992;28;20543;-63
2021/12/17 01:47:11;;;;;;;0.40;0.40;;;6.10;70.10;;;;;;6229711;28;20194;-63
2021/12/17 01:59:20;;;;;;;0.50;0.50;;;6.10;68.00;;;;;;6248571;28;20228;-63
2021/12/17 02:00:36;;;;;;;0.50;0.50;;;6.00;68.70;;;;;;6221917;28;20245;-63
2021/12/17 02:03:37;;;;;;;0.40;0.40;;;5.90;70.70;;;;;;6231506;28;20187;-62
2021/12/17 02:06:39;;;;;;;0.40;0.40;;;5.90;70.00;;;;;;6243241;28;20200;-63
2021/12/17 02:32:36;;;;;;;0.50;0.50;;;6.00;66.00;;;;;;6225904;28;20196;-63
2021/12/17 02:35:42;;;;;;;0.40;0.40;;;6.30;65.20;;;;;;6225577;28;20187;-63
2021/12/17 02:38:43;;;;;;;0.57;0.40;;;6.50;64.50;;;;;;6226027;28;20290;-63
2021/12/17 02:45:34;;;;;;;1.17;0.50;;;6.50;64.20;;;;;;6231045;28;20194;-63
2021/12/17 02:48:38;;;;;;;0.63;0.50;;;6.40;65.70;;;;;;6222945;28;20218;-63
2021/12/17 02:51:41;;;;;;;0.50;0.50;;;6.20;66.50;;;;;;6201683;28;20190;-63
2021/12/17 02:54:42;;;;;;;0.73;0.63;;;6.00;67.80;;;;;;6185261;28;20234;-63
2021/12/17 02:57:44;;;;;;;0.47;0.47;;;5.80;68.60;;;;;;6224337;28;20202;-64
2021/12/17 03:00:45;;;;;;;0.40;0.40;;;5.70;69.70;;;;;;6224415;28;20202;-63
2021/12/17 03:03:50;;;;;;;0.50;0.50;;;5.50;69.50;;;;;;6208886;28;20244;-64
2021/12/17 03:06:50;;;;;;;0.43;0.43;;;5.30;71.60;;;;;;6201943;28;20195;-64
2021/12/17 03:10:04;;;;;;;0.70;0.70;;;5.30;71.90;;;;;;6217727;28;20211;-64
2021/12/17 03:13:06;;;;;;;0.30;0.30;;;5.10;71.40;;;;;;6184842;28;20183;-63
2021/12/17 03:25:49;;;;;;;0.40;0.40;;;4.60;72.80;;;;;;6221687;28;20196;-64
2021/12/17 03:28:54;;;;;;;0.87;0.80;;;4.60;73.10;;;;;;6219754;28;20218;-63
2021/12/17 03:31:58;;;;;;;0.73;0.73;;;4.60;73.50;;;;;;6229643;28;20186;-63
2021/12/17 03:35:00;;;;;;;0.70;0.70;;;4.40;73.00;;;;;;6191514;28;20246;-63
2021/12/17 03:38:01;;;;;;;0.73;0.70;;;4.40;73.30;;;;;;6183825;28;20585;-63
2021/12/17 03:41:16;;;;;;;1.33;0.70;;;4.30;73.50;;;;;;6200137;28;20650;-64
2021/12/17 03:44:24;;;;;;;0.90;0.77;;;4.30;73.80;;;;;;6170458;28;20203;-64
2021/12/17 03:47:36;;;;;;;0.70;0.50;;;4.50;71.00;;;;;;6178428;28;20231;-64
2021/12/17 03:50:51;;;;;;;0.80;0.60;;;4.60;70.10;;;;;;6233082;28;20191;-64
2021/12/17 03:53:54;;;;;;;0.60;0.60;;;4.80;69.60;;;;;;6232267;28;20193;-64
2021/12/17 03:56:55;;;;;;;0.73;0.73;;;4.80;69.40;;;;;;6249217;28;20178;-63
2021/12/17 03:59:56;;;;;;;1.97;1.43;;;5.00;68.00;;;;;;6218889;28;20245;-63
2021/12/17 04:03:02;;;;;;;1.00;0.90;;;5.10;68.40;;;;;;6168752;28;20195;-64
2021/12/17 04:06:12;;;;;;;1.27;0.77;;;5.10;67.10;;;;;;6193845;28;20198;-64
2021/12/17 04:09:32;;;;;;;0.40;0.40;;;5.20;67.90;;;;;;6223768;28;20215;-64
2021/12/17 04:15:53;;;;;;;0.80;0.70;;;5.10;68.20;;;;;;6257390;28;20257;-64
2021/12/17 04:18:55;;;;;;;1.20;0.90;;;5.00;68.50;;;;;;6232903;28;20186;-65
2021/12/17 04:21:58;;;;;;;0.77;0.60;;;4.80;68.60;;;;;;6222989;28;20218;-64
2021/12/17 04:24:59;;;;;;;0.70;0.57;;;4.80;67.80;;;;;;6224967;28;20201;-65
2021/12/17 04:28:01;;;;;;;0.63;0.53;;;4.90;66.90;;;;;;6231684;28;20280;-65
2021/12/17 04:31:04;;;;;;;0.40;0.40;;;5.00;66.40;;;;;;6225385;28;20188;-65
2021/12/17 04:34:09;;;;;;;0.73;0.60;;;5.20;65.20;;;;;;6209104;28;20237;-64
2021/12/17 04:37:10;;;;;;;0.97;0.67;;;5.30;64.30;;;;;;6234487;28;20210;-64
2021/12/17 04:40:27;;;;;;;0.70;0.60;;;5.30;65.10;;;;;;6264349;28;20534;-64
2021/12/17 04:43:42;;;;;;;0.50;0.50;;;5.40;64.10;;;;;;6197714;28;20224;-65
2021/12/17 04:46:51;;;;;;;0.43;0.40;;;5.60;63.00;;;;;;6240884;28;20281;-65
2021/12/17 05:00:20;;;;;;;0.40;0.40;;;5.50;63.40;;;;;;6253529;28;20250;-64
2021/12/17 05:03:29;;;;;;;2.73;0.60;;;5.60;62.30;;;;;;6230060;28;20231;-64
2021/12/17 05:06:31;;;;;;;0.40;0.40;;;5.60;62.90;;;;;;6235301;28;20207;-64
2021/12/17 05:09:46;;;;;;;0.50;0.50;;;5.60;62.20;;;;;;6209621;28;20218;-64
2021/12/17 05:19:45;;;;;;;0.30;0.30;;;5.40;63.00;;;;;;6228777;28;20218;-63
2021/12/17 05:22:52;;;;;;;0.57;0.30;;;5.50;62.80;;;;;;6211672;28;20255;-63
2021/12/17 05:25:53;;;;;;;0.60;0.30;;;5.50;63.40;;;;;;6202836;28;20202;-63
2021/12/17 05:28:56;;;;;;;0.50;0.50;;;5.50;64.00;;;;;;6227307;28;20223;-64
2021/12/17 05:32:04;;;;;;;0.50;0.30;;;5.50;63.00;;;;;;6171805;28;20250;-63
2021/12/17 05:35:05;;;;;;;0.30;0.30;;;5.60;63.30;;;;;;6188712;28;20241;-63
2021/12/17 05:38:07;;;;;;;0.33;0.33;;;5.60;63.20;;;;;;6220315;28;20187;-63
2021/12/17 05:41:08;;;;;;;0.30;0.30;;;5.50;64.00;;;;;;6212438;28;20197;-63
2021/12/17 05:44:27;;;;;;;0.93;0.40;;;5.50;63.40;;;;;;6210109;28;20209;-64
2021/12/17 05:47:29;;;;;;;0.50;0.40;;;5.50;63.80;;;;;;6210119;28;20191;-63
2021/12/17 05:50:31;;;;;;;1.50;0.70;;;5.40;64.50;;;;;;6217247;28;20253;-64
2021/12/17 05:53:32;;;;;;;0.37;0.37;;;5.40;65.70;;;;;;6226933;28;20183;-65
2021/12/17 05:56:35;;;;;;;0.50;0.30;;;5.40;64.70;;;;;;6233092;28;20195;-64
2021/12/17 05:59:37;;;;;;;0.70;0.60;;;5.30;66.40;;;;;;6212471;28;20241;-62
2021/12/17 06:02:40;;;;;;;0.40;0.40;;;5.20;65.00;;;;;;6225644;28;20284;-64
2021/12/17 06:05:41;;;;;;;1.43;0.53;;;5.20;65.80;;;;;;6228230;28;20191;-64
2021/12/17 06:08:45;;;;;;;1.23;1.13;;;5.20;66.60;;;;;;6244275;28;20209;-64
2021/12/17 06:11:46;;;;;;;1.03;0.87;;;4.90;64.80;;;;;;6242481;28;20190;-63
2021/12/17 06:14:51;;;;;;;1.20;1.00;;;4.70;67.60;;;;;;6214272;28;20183;-63
2021/12/17 06:17:52;;;;;;;1.13;1.00;;;4.40;67.40;;;;;;6207295;28;20269;-64
2021/12/17 06:20:53;;;;;;;1.57;1.20;;;4.30;68.80;;;;;;6223114;28;20282;-64
2021/12/17 06:23:55;;;;;;;1.37;0.90;;;4.10;68.90;;;;;;6238469;28;20201;-64
2021/12/17 06:26:55;;;;;;;1.37;1.10;;;3.80;70.00;;;;;;6210820;28;20194;-64
2021/12/17 06:29:57;;;;;;;1.90;1.17;;;3.80;69.60;;;;;;6221001;28;20227;-64
2021/12/17 06:32:58;;;;;;;2.97;1.27;;;3.50;72.00;;;;;;6200073;28;20195;-64
2021/12/17 06:36:03;;;;;;;2.33;1.70;;;3.40;72.70;;;;;;6213535;28;20190;-64
2021/12/17 06:39:04;;;;;;;1.90;1.40;;;3.10;73.00;;;;;;6193137;28;20195;-64
2021/12/17 06:42:12;;;;;;;2.63;1.77;;;3.00;73.90;;;;;;6225057;28;20211;-63
2021/12/17 06:45:21;;;;;;;3.23;1.90;;;2.90;75.40;;;;;;6234426;28;20202;-64
2021/12/17 06:48:26;;;;;;;1.97;1.53;;;2.80;75.40;;;;;;6225393;28;20227;-63
2021/12/17 06:55:04;;;;;;;3.23;1.30;;;2.80;76.60;;;;;;6222979;28;20172;-63
2021/12/17 07:06:00;;;;;;;1.20;1.10;;;2.80;75.80;;;;;;6232789;28;20349;-64
2021/12/17 07:23:06;;;;;;;3.40;1.27;;;2.90;74.90;;;;;;6206034;28;20195;-63
2021/12/17 07:33:12;;;;;;;2.30;1.40;;;3.40;74.80;;;;;;6235367;28;20213;-62
2021/12/17 07:38:35;;;;;;;1.80;1.40;;;3.50;74.10;;;;;;6208019;28;20199;-65
2021/12/17 07:40:01;;;;;;;1.67;1.03;;;3.50;73.80;;;;;;6226054;28;20191;-68
2021/12/17 07:43:12;;;;;;;3.43;1.57;;;3.70;72.60;;;;;;6217561;28;20233;-68
2021/12/17 07:46:20;;;;;;;1.30;1.20;;;3.80;71.60;;;;;;6231773;28;20213;-67
2021/12/17 07:49:21;;;;;;;3.37;2.40;;;3.80;72.40;;;;;;6215015;28;20230;-67
2021/12/17 07:52:22;;;;;;;3.83;3.13;;;3.80;72.90;;;;;;6241240;28;20195;-67
2021/12/17 07:55:24;;;;;;;3.77;2.83;;;3.80;73.90;;;;;;6208360;28;20187;-66
2021/12/17 07:58:25;;;;;;;5.03;2.37;;;3.80;74.60;;;;;;6200707;28;20226;-66
2021/12/17 08:01:26;;;;;;;1.70;1.30;;;3.90;73.30;;;;;;6194166;28;20194;-66
2021/12/17 08:04:27;;;;;;;3.23;1.67;;;4.00;72.60;;;;;;6188208;28;20282;-67
2021/12/17 08:07:37;;;;;;;2.37;1.73;;;4.00;71.60;;;;;;6232088;28;20198;-67
2021/12/17 08:10:38;;;;;;;2.93;1.70;;;4.00;72.40;;;;;;6204030;28;20206;-67
2021/12/17 08:13:41;;;;;;;5.17;2.00;;;4.10;72.00;;;;;;6232509;28;20197;-67
2021/12/17 08:23:51;;;;;;;4.97;2.10;;;4.10;74.00;;;;;;6238919;28;20191;-68
2021/12/17 08:29:51;;;;;;;3.17;2.50;;;4.20;72.30;;;;;;6216519;28;20286;-68
2021/12/17 08:32:52;;;;;;;3.00;1.87;;;4.30;71.90;;;;;;6186648;28;20218;-68
2021/12/17 08:35:57;;;;;;;3.57;2.30;;;4.30;72.40;;;;;;6199474;28;20210;-68
2021/12/17 08:39:07;;;;;;;3.87;2.20;;;4.40;72.60;;;;;;6220652;28;20191;-67
2021/12/17 08:42:18;;;;;;;5.80;2.87;;;4.50;74.10;;;;;;6185092;28;20180;-67
2021/12/17 08:45:19;;;;;;;6.37;2.90;;;4.50;72.30;;;;;;6197004;28;20199;-68
2021/12/17 08:48:23;;;;;;;5.93;2.80;;;4.60;73.40;;;;;;6231897;28;20242;-68
2021/12/17 08:51:49;;;;;;;4.00;2.47;;;4.70;69.50;;;;;;6208076;28;20207;-68
2021/12/17 08:54:51;;;;;;;6.17;3.37;;;4.60;71.90;;;;;;6207493;28;20194;-68
2021/12/17 08:57:52;;;;;;;6.30;3.23;;;4.80;72.50;;;;;;6207232;28;20652;-68
2021/12/17 09:00:53;;;;;;;9.17;3.57;;;4.80;70.10;;;;;;6195971;28;20238;-67
2021/12/17 09:04:00;;;;;;;6.40;3.33;;;4.80;72.60;;;;;;6236043;28;20187;-68
2021/12/17 09:07:08;;;;;;;6.33;3.20;;;4.90;71.10;;;;;;6249637;28;20215;-67
2021/12/17 09:10:11;;;;;;;3.87;2.90;;;5.00;69.40;;;;;;6220699;28;20213;-68
2021/12/17 09:13:12;;;;;;;7.20;3.73;;;5.20;70.90;;;;;;6220209;28;20190;-68
2021/12/17 09:16:13;;;;;;;9.30;3.30;;;5.30;70.50;;;;;;6198426;28;20200;-68
2021/12/17 09:19:14;;;;;;;4.27;2.30;;;5.30;71.30;;;;;;6219182;28;20192;-67
2021/12/17 09:22:22;;;;;;;4.60;2.40;;;5.40;70.20;;;;;;6219048;28;20187;-67
2021/12/17 09:25:27;;;;;;;4.60;2.30;;;5.60;69.60;;;;;;6226674;28;20206;-68
2021/12/17 09:28:32;;;;;;;3.13;2.30;;;5.70;69.10;;;;;;6211085;28;20211;-68
2021/12/17 09:31:35;;;;;;;5.77;2.87;;;5.80;68.30;;;;;;6226669;28;20206;-68
2021/12/17 09:34:36;;;;;;;4.60;2.93;;;5.90;70.70;;;;;;6231347;28;20206;-68
2021/12/17 09:37:37;;;;;;;7.10;3.70;;;6.00;69.50;;;;;;6195379;28;20202;-68
2021/12/17 09:40:38;;;;;;;6.40;3.80;;;6.00;68.90;;;;;;6226769;28;20199;-68
2021/12/17 09:43:39;;;;;;;4.37;2.73;;;6.10;66.30;;;;;;6219732;28;20199;-68
2021/12/17 09:46:43;;;;;;;5.63;3.27;;;6.30;65.40;;;;;;6225329;28;20197;-68
2021/12/17 09:49:45;;;;;;;5.23;2.87;;;6.30;68.20;;;;;;6205837;28;20214;-69
2021/12/17 09:52:47;;;;;;;5.83;3.13;;;6.40;63.90;;;;;;6226486;28;20183;-68
2021/12/17 09:55:49;;;;;;;8.47;3.73;;;6.50;63.70;;;;;;6221748;28;20267;-68
2021/12/17 09:58:50;;;;;;;5.03;3.13;;;6.50;65.10;;;;;;6226412;28;20247;-68
2021/12/17 10:01:51;;;;;;;5.47;3.53;;;6.50;65.60;;;;;;6209957;28;20179;-66
2021/12/17 10:04:55;;;;;;;7.70;3.03;;;6.40;66.30;;;;;;6232794;28;20215;-67
2021/12/17 10:08:03;;;;;;;4.77;3.23;;;6.40;64.30;;;;;;6240878;28;20192;-68
2021/12/17 10:11:04;;;;;;;6.33;3.83;;;6.40;64.50;;;;;;6225800;28;20208;-67
2021/12/17 10:14:24;;;;;;;6.17;3.27;;;6.50;65.70;;;;;;6226923;28;20171;-66
2021/12/17 10:17:25;;;;;;;6.20;3.23;;;6.50;64.40;;;;;;6230221;28;20183;-67
2021/12/17 10:20:27;;;;;;;5.93;3.33;;;6.40;67.30;;;;;;6247691;28;20201;-68
2021/12/17 10:23:29;;;;;;;6.07;3.47;;;6.50;65.40;;;;;;6232580;28;20194;-67
2021/12/17 10:26:40;;;;;;;5.50;3.13;;;6.50;66.20;;;;;;6186191;28;20255;-68
2021/12/17 10:29:41;;;;;;;9.97;3.53;;;6.60;65.80;;;;;;6235577;28;20214;-68
2021/12/17 10:32:44;;;;;;;8.93;4.30;;;6.70;65.00;;;;;;6225532;28;20187;-67
2021/12/17 10:35:48;;;;;;;4.53;3.27;;;6.70;65.30;;;;;;6198055;28;20197;-66
2021/12/17 10:38:49;;;;;;;4.87;3.23;;;6.80;64.80;;;;;;6232097;28;20213;-68
2021/12/17 10:41:50;;;;;;;6.43;3.13;;;6.80;65.30;;;;;;6210639;28;20206;-68
2021/12/17 10:45:10;;;;;;;9.67;4.30;;;7.00;65.20;;;;;;6209729;28;20193;-69
2021/12/17 10:54:41;;;;;;;9.70;3.90;;;7.30;63.40;;;;;;6206135;28;20172;-67
2021/12/17 10:57:43;;;;;;;8.13;3.33;;;7.40;63.60;;;;;;6199996;28;20210;-67
2021/12/17 11:01:05;;;;;;;8.87;2.80;;;7.60;61.90;;;;;;6242779;28;20242;-67
2021/12/17 11:04:20;;;;;;;3.60;2.87;;;7.70;62.00;;;;;;6225899;28;20333;-67
2021/12/17 11:07:21;;;;;;;14.67;3.83;;;7.80;62.00;;;;;;6228566;28;20203;-67
2021/12/17 11:10:31;;;;;;;7.87;3.97;;;8.00;61.90;;;;;;6200186;28;20254;-66
2021/12/17 11:13:33;;;;;;;8.03;4.07;;;8.20;61.90;;;;;;6224086;28;20198;-66
2021/12/17 11:16:36;;;;;;;10.27;3.20;;;8.20;61.40;;;;;;6225023;28;20226;-66
2021/12/17 11:19:39;;;;;;;7.70;3.50;;;8.30;60.90;;;;;;6192341;28;20198;-67
2021/12/17 11:22:43;;;;;;;5.50;3.20;;;8.40;60.50;;;;;;6224591;28;20223;-67
2021/12/17 11:25:48;;;;;;;10.30;3.80;;;8.50;60.20;;;;;;6221880;28;20196;-67
2021/12/17 11:28:50;;;;;;;6.87;3.10;;;8.70;62.40;;;;;;6184837;28;20324;-67
2021/12/17 11:31:51;;;;;;;10.20;4.10;;;8.80;61.10;;;;;;6223530;28;20212;-69
2021/12/17 11:34:53;;;;;;;8.30;3.93;;;8.70;61.70;;;;;;6212714;28;20188;-67
2021/12/17 11:38:02;;;;;;;10.87;5.07;;;8.60;62.50;;;;;;6195524;28;20183;-66
2021/12/17 11:41:19;;;;;;;10.70;4.33;;;8.80;57.90;;;;;;6227312;28;20241;-68
2021/12/17 11:44:27;;;;;;;13.10;3.87;;;8.90;58.80;;;;;;6233144;28;20230;-68
2021/12/17 11:47:34;;;;;;;9.40;4.53;;;8.80;61.30;;;;;;6233240;28;20197;-69
2021/12/17 11:50:35;;;;;;;11.33;4.10;;;8.80;58.40;;;;;;6194282;28;20223;-69
2021/12/17 11:54:00;;;;;;;9.10;3.33;;;8.70;61.00;;;;;;6224639;28;20205;-69
2021/12/17 11:57:13;;;;;;;8.73;3.43;;;8.60;60.00;;;;;;6207573;28;20722;-69
2021/12/17 12:00:18;;;;;;;3.97;2.17;;;8.50;61.60;;;;;;6224004;28;20231;-69
2021/12/17 12:03:21;;;;;;;3.80;1.90;;;8.60;57.90;;;;;;6224101;28;20226;-68
2021/12/17 12:06:34;;;;;;;6.43;1.73;;;8.60;57.80;;;;;;6231825;28;20677;-67
2021/12/17 12:10:08;;;;;;;4.50;2.10;;;8.70;58.30;;;;;;6231961;28;20685;-71
2021/12/17 12:13:08;;;;;;;3.17;1.57;;;8.80;57.60;;;;;;6213131;28;20195;-68
2021/12/17 12:16:15;;;;;;;3.40;1.80;;;8.90;56.50;;;;;;6215712;28;20194;-68
2021/12/17 12:19:19;;;;;;;3.83;1.80;;;9.20;57.10;;;;;;6231391;28;20253;-68
2021/12/17 12:22:43;;;;;;;0.87;0.70;;;9.20;58.90;;;;;;6194883;28;20198;-69
2021/12/17 12:26:11;;;;;;;2.77;1.60;;;9.30;55.50;;;;;;6232056;28;20187;-67
2021/12/17 12:29:21;;;;;;;5.27;1.37;;;9.50;55.40;;;;;;6239480;28;20215;-67
2021/12/17 12:32:23;;;;;;;2.13;1.13;;;9.70;52.80;;;;;;6227116;28;20206;-68
2021/12/17 12:35:24;;;;;;;3.30;1.37;;;9.80;54.50;;;;;;6211076;28;20195;-68
2021/12/17 12:38:32;;;;;;;1.27;0.80;;;10.10;51.90;;;;;;6211879;28;20190;-67
2021/12/17 12:41:45;;;;;;;1.90;1.23;;;10.40;50.90;;;;;;6196363;28;20192;-65
2021/12/17 12:44:46;;;;;;;1.10;0.53;;;10.80;49.60;;;;;;6217265;28;20184;-65
2021/12/17 12:47:54;;;;;;;3.73;1.27;;;11.30;48.30;;;;;;6244902;28;20179;-66
2021/12/17 12:51:20;;;;;;;1.70;1.60;;;11.40;47.60;;;;;;6229033;28;20231;-66
2021/12/17 12:54:22;;;;;;;0.60;0.40;;;11.50;47.60;;;;;;6235508;28;20190;-68
2021/12/17 12:57:41;;;;;;;1.10;0.70;;;11.60;46.80;;;;;;6245627;28;20194;-68
2021/12/17 13:00:52;;;;;;;1.67;0.20;;;11.70;45.90;;;;;;6244452;28;20595;-66
2021/12/17 13:03:53;;;;;;;2.67;0.50;;;11.70;46.20;;;;;;6228179;28;20201;-68
2021/12/17 13:06:53;;;;;;;0.63;0.60;;;11.70;47.30;;;;;;6211777;28;20191;-67
2021/12/17 13:09:54;;;;;;;0.30;0.30;;;11.70;46.80;;;;;;6228270;28;20227;-67
2021/12/17 13:13:02;;;;;;;2.33;0.43;;;11.60;47.00;;;;;;6227999;28;20660;-65
2021/12/17 13:16:12;;;;;;;0.70;0.50;;;11.80;45.90;;;;;;6220653;28;20261;-67
2021/12/17 13:22:53;;;;;;;1.07;0.80;;;11.80;45.90;;;;;;6244509;28;20222;-66
2021/12/17 13:26:24;;;;;;;0.60;0.60;;;11.80;45.80;;;;;;6252012;28;20229;-68
2021/12/17 13:29:33;;;;;;;2.10;1.33;;;11.80;46.00;;;;;;6241756;28;20220;-67
2021/12/17 13:32:34;;;;;;;2.70;0.50;;;11.80;45.70;;;;;;6227939;28;20184;-68
2021/12/17 13:35:36;;;;;;;0.80;0.60;;;11.70;44.90;;;;;;6224038;28;20198;-67
2021/12/17 13:38:36;;;;;;;1.10;0.63;;;11.80;44.20;;;;;;6227344;28;20195;-67
2021/12/17 13:41:42;;;;;;;1.10;0.80;;;11.80;43.90;;;;;;6209615;28;20187;-65
2021/12/17 13:44:54;;;;;;;0.60;0.60;;;11.80;44.70;;;;;;6202339;28;20184;-68
2021/12/17 13:47:57;;;;;;;1.53;0.90;;;11.90;45.30;;;;;;6235900;28;20195;-67
2021/12/17 13:50:58;;;;;;;1.40;0.63;;;11.90;43.60;;;;;;6210706;28;20227;-67
2021/12/17 13:53:59;;;;;;;0.50;0.40;;;11.90;43.10;;;;;;6243741;28;20203;-71
2021/12/17 13:57:02;;;;;;;0.70;0.40;;;11.90;42.20;;;;;;6185174;28;20186;-66
2021/12/17 14:00:20;;;;;;;0.93;0.73;;;12.00;43.30;;;;;;6243171;28;20318;-65
2021/12/17 14:03:31;;;;;;;0.60;0.50;;;12.20;43.80;;;;;;6227238;28;20188;-66
2021/12/17 14:06:40;;;;;;;0.87;0.80;;;12.20;42.70;;;;;;6243231;28;20190;-65
2021/12/17 14:09:41;;;;;;;0.50;0.37;;;12.00;42.80;;;;;;6198058;28;20219;-64
2021/12/17 14:12:43;;;;;;;1.07;0.50;;;11.80;42.80;;;;;;6186745;28;20187;-63
2021/12/17 14:15:44;;;;;;;0.63;0.60;;;11.80;43.20;;;;;;6230442;28;20208;-66
2021/12/17 14:18:45;;;;;;;0.80;0.40;;;11.60;43.90;;;;;;6201856;28;20187;-66
2021/12/17 14:21:45;;;;;;;1.10;0.67;;;11.60;43.00;;;;;;6215808;28;20233;-66
2021/12/17 14:24:47;;;;;;;1.20;0.87;;;11.50;44.00;;;;;;6200875;28;20194;-67
2021/12/17 14:27:49;;;;;;;1.77;0.70;;;11.30;44.00;;;;;;6208947;28;20199;-67
2021/12/17 14:31:01;;;;;;;2.60;0.60;;;11.30;44.80;;;;;;6217392;28;20253;-66
2021/12/17 14:34:03;;;;;;;0.60;0.50;;;11.10;45.70;;;;;;6208611;28;20184;-66
2021/12/17 14:37:03;;;;;;;18.67;9.67;;;11.00;44.50;;;;;;6194699;28;20249;-66
2021/12/17 14:40:05;;;;;;;12.43;6.07;;;10.60;50.90;;;;;;6192823;28;20206;-66
2021/12/17 14:43:35;;;;;;;10.37;6.20;;;10.20;52.90;;;;;;6211888;28;20198;-67
2021/12/17 14:47:02;;;;;;;7.17;5.37;;;9.40;55.90;;;;;;6214257;28;20218;-67
2021/12/17 15:06:19;;;;;;;7.50;4.10;;;7.70;64.10;;;;;;6195962;28;20191;-68
2021/12/17 15:09:20;;;;;;;9.67;5.20;;;7.60;64.60;;;;;;6240805;28;20305;-68
2021/12/17 15:15:36;;;;;;;6.67;4.77;;;7.30;66.60;;;;;;6236998;28;20187;-68
2021/12/17 15:18:39;;;;;;;7.60;4.80;;;7.00;66.70;;;;;;6211089;28;20191;-68
2021/12/17 15:21:39;;;;;;;7.50;5.13;;;6.90;67.40;;;;;;6208704;28;20194;-68
2021/12/17 15:24:40;;;;;;;8.27;5.30;;;6.70;68.20;;;;;;6223814;28;20248;-68
2021/12/17 15:27:42;;;;;;;5.80;4.83;;;6.50;69.20;;;;;;6225093;28;20302;-68
2021/12/17 15:30:46;;;;;;;7.30;4.60;;;6.30;69.60;;;;;;6224302;28;20227;-67
2021/12/17 15:33:46;;;;;;;9.43;6.23;;;6.30;69.50;;;;;;6224489;28;20188;-67
2021/12/17 15:36:47;;;;;;;6.10;4.87;;;6.20;70.90;;;;;;6226667;28;20324;-67
2021/12/17 15:39:48;;;;;;;8.60;5.30;;;6.10;70.80;;;;;;6208943;28;20223;-66
2021/12/17 15:42:49;;;;;;;7.00;5.77;;;6.00;70.80;;;;;;6237297;28;20187;-67
2021/12/17 15:45:52;;;;;;;7.53;5.50;;;5.90;71.10;;;;;;6216624;28;20200;-67
2021/12/17 15:48:53;;;;;;;8.30;5.70;;;5.80;72.10;;;;;;6230315;28;20225;-66
2021/12/17 15:51:54;;;;;;;10.30;6.17;;;5.70;72.10;;;;;;6191562;28;20201;-68
2021/12/17 15:54:55;;;;;;;8.10;6.07;;;5.70;71.90;;;;;;6218204;28;20195;-67
2021/12/17 15:57:57;;;;;;;7.10;6.40;;;5.40;73.10;;;;;;6235150;28;20267;-67
2021/12/17 16:00:58;;;;;;;7.70;5.87;;;5.30;73.50;;;;;;6231374;28;20317;-66
2021/12/17 16:03:59;;;;;;;9.03;6.10;;;5.30;73.90;;;;;;6210192;28;20208;-67
2021/12/17 16:07:01;;;;;;;10.57;6.27;;;5.20;73.70;;;;;;6207069;28;20201;-67
2021/12/17 16:23:11;;;;;;;8.50;6.20;;;4.80;75.60;;;;;;6240641;28;20195;-67
2021/12/17 16:26:13;;;;;;;9.63;7.00;;;4.80;75.90;;;;;;6230873;28;20228;-67
2021/12/17 16:29:18;;;;;;;8.80;6.93;;;4.70;76.30;;;;;;6231409;28;20204;-67
2021/12/17 16:32:19;;;;;;;9.63;6.67;;;4.70;76.30;;;;;;6247879;28;20190;-67
2021/12/17 16:35:19;;;;;;;8.83;6.53;;;4.60;76.80;;;;;;6193962;28;20253;-67
2021/12/17 16:38:22;;;;;;;8.40;6.47;;;4.50;76.70;;;;;;6192490;28;20186;-68
2021/12/17 16:41:24;;;;;;;13.13;9.60;;;4.40;77.70;;;;;;6213054;28;20191;-67
2021/12/17 16:44:41;;;;;;;14.23;8.03;;;4.30;77.30;;;;;;6199596;28;20286;-67
2021/12/17 16:47:42;;;;;;;13.13;9.10;;;4.30;78.20;;;;;;6237254;28;20260;-67
2021/12/17 16:50:43;;;;;;;11.73;8.90;;;4.30;78.10;;;;;;6215674;28;20225;-67
2021/12/17 16:53:46;;;;;;;12.23;8.73;;;4.20;78.70;;;;;;6212826;28;20183;-67
2021/12/17 16:56:48;;;;;;;13.27;9.30;;;4.10;79.00;;;;;;6207014;28;20645;-67
2021/12/17 16:59:49;;;;;;;13.97;8.57;;;4.10;78.60;;;;;;6206325;28;20298;-67
2021/12/17 17:02:53;;;;;;;12.87;8.80;;;4.00;79.30;;;;;;6223258;28;20194;-67
2021/12/17 17:05:54;;;;;;;12.07;8.93;;;3.90;79.30;;;;;;6222920;28;20215;-67
2021/12/17 17:09:00;;;;;;;16.97;9.93;;;3.90;79.20;;;;;;6223485;28;20219;-67
2021/12/17 17:12:05;;;;;;;33.20;17.10;;;3.80;79.00;;;;;;6207320;28;20234;-67
2021/12/17 17:15:06;;;;;;;78.57;30.77;;;3.80;79.50;;;;;;6201761;28;20274;-67
2021/12/17 17:18:07;;;;;;;47.90;22.57;;;3.70;79.00;;;;;;6170903;28;20188;-67
2021/12/17 17:21:08;;;;;;;30.47;15.03;;;3.60;80.00;;;;;;6216773;28;20197;-67
2021/12/17 17:24:10;;;;;;;42.23;20.93;;;3.50;80.60;;;;;;6206055;28;20197;-67
2021/12/17 17:27:11;;;;;;;43.13;19.50;;;3.50;80.10;;;;;;6179922;28;20234;-68
2021/12/17 17:30:12;;;;;;;40.03;17.77;;;3.40;80.00;;;;;;6230727;28;20280;-68
2021/12/17 17:33:13;;;;;;;31.93;14.70;;;3.30;79.80;;;;;;6215193;28;20194;-68
2021/12/17 17:36:20;;;;;;;34.93;18.17;;;3.30;80.00;;;;;;6224771;28;20301;-69
2021/12/17 17:39:21;;;;;;;35.07;15.37;;;3.20;80.40;;;;;;6215435;28;20274;-68
2021/12/17 17:42:22;;;;;;;26.63;14.87;;;3.00;80.70;;;;;;6201961;28;20191;-69
2021/12/17 17:45:22;;;;;;;27.00;14.27;;;3.00;81.00;;;;;;6206055;28;20201;-68
2021/12/17 17:48:23;;;;;;;19.87;12.00;;;3.00;80.80;;;;;;6197593;28;20205;-68
2021/12/17 17:51:24;;;;;;;18.93;11.60;;;2.90;81.00;;;;;;6204764;28;20222;-72
2021/12/17 17:54:25;;;;;;;22.77;11.73;;;2.90;81.40;;;;;;6204628;28;20201;-67
2021/12/17 17:57:26;;;;;;;19.33;10.80;;;2.80;82.10;;;;;;6187455;28;20190;-68
2021/12/17 18:00:27;;;;;;;21.33;11.97;;;2.80;82.00;;;;;;6219045;28;20238;-66
2021/12/17 18:03:28;;;;;;;21.33;12.00;;;2.80;82.20;;;;;;6194138;28;20195;-67
2021/12/17 18:06:29;;;;;;;19.83;10.37;;;2.70;81.70;;;;;;6204725;28;20261;-69
2021/12/17 18:09:29;;;;;;;14.50;9.23;;;2.60;81.70;;;;;;6201650;28;20221;-69
2021/12/17 18:12:30;;;;;;;12.50;8.77;;;2.60;82.10;;;;;;6215832;28;20213;-68
2021/12/17 18:15:33;;;;;;;13.77;9.10;;;2.50;82.60;;;;;;6232673;28;20196;-68
2021/12/17 18:18:34;;;;;;;20.13;12.37;;;2.50;82.30;;;;;;6222073;28;20191;-68
2021/12/17 18:21:35;;;;;;;13.80;9.33;;;2.30;83.20;;;;;;6209318;28;20195;-64
2021/12/17 18:24:36;;;;;;;12.13;8.80;;;2.30;82.90;;;;;;6235727;28;20249;-65
2021/12/17 18:27:37;;;;;;;13.33;8.47;;;2.30;83.20;;;;;;6221780;28;20190;-65
2021/12/17 18:30:39;;;;;;;14.53;9.00;;;2.30;82.30;;;;;;6189957;28;20215;-64
2021/12/17 18:33:39;;;;;;;13.17;9.57;;;2.30;82.60;;;;;;6234586;28;20201;-64
2021/12/17 18:36:40;;;;;;;10.67;7.40;;;2.30;82.80;;;;;;6211574;28;20186;-65
2021/12/17 18:39:41;;;;;;;12.60;8.90;;;2.10;83.20;;;;;;6217197;28;20191;-65
2021/12/17 18:46:01;;;;;;;11.60;7.97;;;2.10;83.50;;;;;;6223202;28;20666;-65
2021/12/17 18:49:03;;;;;;;15.20;9.33;;;2.10;83.90;;;;;;6205332;28;20221;-66
2021/12/17 18:52:04;;;;;;;12.03;8.30;;;2.00;83.60;;;;;;6230083;28;20215;-66
2021/12/17 18:55:05;;;;;;;12.63;8.63;;;2.00;84.10;;;;;;6225794;28;20164;-65
2021/12/17 18:58:07;;;;;;;17.17;11.83;;;2.10;83.70;;;;;;6248942;28;20194;-65
2021/12/17 19:01:08;;;;;;;10.97;8.27;;;2.00;84.20;;;;;;6233497;28;20194;-65
2021/12/17 19:04:09;;;;;;;11.83;8.73;;;2.00;84.30;;;;;;6228878;28;20202;-65
2021/12/17 19:07:10;;;;;;;10.00;8.40;;;2.00;84.30;;;;;;6229692;28;20219;-67
2021/12/17 19:10:12;;;;;;;12.83;8.40;;;1.90;84.40;;;;;;6225088;28;20268;-67
2021/12/17 19:13:12;;;;;;;10.77;7.63;;;1.90;84.60;;;;;;6226100;28;20281;-66
2021/12/17 19:16:15;;;;;;;10.57;8.57;;;1.90;84.80;;;;;;6222307;28;20207;-65
2021/12/17 19:22:31;;;;;;;11.97;9.17;;;1.80;85.40;;;;;;6259110;28;20218;-65
2021/12/17 19:25:34;;;;;;;13.60;9.13;;;1.80;85.80;;;;;;6208951;28;20322;-63
2021/12/17 19:28:35;;;;;;;12.87;9.10;;;1.80;85.10;;;;;;6237490;28;20199;-64
2021/12/17 19:31:36;;;;;;;13.57;9.80;;;1.80;85.40;;;;;;6203740;28;20183;-64
2021/12/17 19:34:36;;;;;;;11.80;8.63;;;1.70;85.90;;;;;;6202758;28;20205;-63